createdAt,value
2022-09-24T00:03:32.288Z,23.55
2022-09-24T00:08:36.263Z,22.55
2022-09-24T00:13:39.575Z,19.58
2022-09-24T00:18:42.730Z,21.77
2022-09-24T00:23:45.542Z,25.25
2022-09-24T00:28:51.210Z,21.50
2022-09-24T00:33:54.403Z,18.75
2022-09-24T00:38:59.132Z,18.08
2022-09-24T00:44:01.679Z,22.20
2022-09-24T00:49:14.435Z,21.88
2022-09-24T00:54:20.885Z,19.15
2022-09-24T00:59:24.156Z,20.47
2022-09-24T01:04:28.727Z,20.33
2022-09-24T01:09:31.179Z,19.15
2022-09-24T01:14:55.251Z,17.95
2022-09-24T01:20:21.525Z,18.35
2022-09-24T01:25:55.074Z,21.50
2022-09-24T01:31:06.285Z,28.00
2022-09-24T01:36:09.552Z,25.13
2022-09-24T01:41:12.950Z,34.42
2022-09-24T01:46:17.064Z,27.30
2022-09-24T01:51:23.486Z,29.83
2022-09-24T01:56:30.711Z,31.45
2022-09-24T02:01:41.398Z,32.83
2022-09-24T02:06:48.840Z,26.25
2022-09-24T02:16:54.719Z,27.27
2022-09-24T02:21:57.886Z,20.40
2022-09-24T02:27:00.309Z,21.25
2022-09-24T02:32:03.917Z,20.23
2022-09-24T02:37:09.030Z,19.88
2022-09-24T02:42:14.269Z,21.40
2022-09-24T02:47:16.633Z,25.73
2022-09-24T02:52:19.149Z,21.02
2022-09-24T02:57:21.473Z,18.05
2022-09-24T03:02:23.925Z,28.00
2022-09-24T03:07:26.348Z,20.75
2022-09-24T03:12:28.689Z,18.27
2022-09-24T03:17:31.062Z,20.77
2022-09-24T03:22:33.467Z,23.20
2022-09-24T03:27:35.926Z,20.95
2022-09-24T03:32:39.548Z,24.23
2022-09-24T03:37:47.039Z,21.33
2022-09-24T03:42:51.524Z,21.50
2022-09-24T03:47:53.866Z,24.33
2022-09-24T03:52:56.238Z,35.67
2022-09-24T03:57:58.682Z,21.73
2022-09-24T04:03:01.115Z,24.65
2022-09-24T04:08:05.271Z,18.48
2022-09-24T04:13:07.576Z,21.52
2022-09-24T04:18:10.913Z,20.77
2022-09-24T04:23:13.310Z,50.95
2022-09-24T04:28:15.962Z,22.63
2022-09-24T04:33:18.301Z,19.95
2022-09-24T04:38:21.718Z,23.83
2022-09-24T04:43:24.040Z,28.58
2022-09-24T04:48:26.734Z,24.70
2022-09-24T04:53:29.120Z,30.65
2022-09-24T04:58:32.100Z,45.03
2022-09-24T05:03:34.455Z,24.55
2022-09-24T05:08:36.819Z,24.25
2022-09-24T05:13:39.162Z,28.52
2022-09-24T05:18:41.708Z,20.05
2022-09-24T05:23:44.100Z,16.40
2022-09-24T05:28:46.546Z,16.02
2022-09-24T05:33:49.474Z,18.35
2022-09-24T05:38:52.010Z,19.33
2022-09-24T05:43:55.391Z,19.25
2022-09-24T05:48:58.060Z,24.48
2022-09-24T05:54:00.430Z,19.10
2022-09-24T05:59:02.924Z,20.60
2022-09-24T06:04:08.892Z,19.98
2022-09-24T06:09:11.661Z,23.17
2022-09-24T06:14:15.169Z,21.50
2022-09-24T06:19:17.572Z,21.05
2022-09-24T06:24:19.942Z,31.35
2022-09-24T06:29:22.320Z,22.90
2022-09-24T06:34:24.707Z,20.00
2022-09-24T06:39:27.829Z,36.40
2022-09-24T06:44:31.037Z,22.08
2022-09-24T06:49:34.412Z,25.90
2022-09-24T06:54:37.018Z,28.48
2022-09-24T06:59:39.451Z,22.88
2022-09-24T07:04:41.840Z,35.15
2022-09-24T07:09:44.250Z,18.92
2022-09-24T07:14:46.612Z,21.25
2022-09-24T07:19:48.896Z,18.35
2022-09-24T07:24:51.248Z,16.67
2022-09-24T07:29:53.674Z,13.77
2022-09-24T07:34:55.988Z,16.98
2022-09-24T07:39:58.420Z,22.35
2022-09-24T07:45:01.041Z,13.13
2022-09-24T07:50:04.366Z,19.42
2022-09-24T07:55:07.410Z,15.05
2022-09-24T08:00:13.127Z,20.67
2022-09-24T08:05:18.213Z,18.23
2022-09-24T08:10:20.795Z,14.75
2022-09-24T08:15:23.349Z,15.27
2022-09-24T08:20:25.687Z,13.00
2022-09-24T08:25:28.158Z,15.15
2022-09-24T08:30:31.177Z,19.40
2022-09-24T08:35:34.815Z,17.83
2022-09-24T08:40:40.419Z,16.85
2022-09-24T08:46:05.895Z,11.20
2022-09-24T08:51:13.209Z,8.05
2022-09-24T08:56:21.400Z,10.18
2022-09-24T09:01:45.316Z,9.65
2022-09-24T09:07:06.424Z,12.02
2022-09-24T09:12:14.747Z,10.02
2022-09-24T09:17:42.329Z,8.95
2022-09-24T09:22:53.456Z,15.18
2022-09-24T09:28:07.727Z,7.75
2022-09-24T09:33:34.958Z,6.78
2022-09-24T09:39:16.278Z,5.25
2022-09-24T09:44:26.336Z,7.00
2022-09-24T09:49:32.914Z,11.27
2022-09-24T09:54:39.150Z,7.65
2022-09-24T09:59:41.523Z,11.00
2022-09-24T10:04:44.055Z,9.35
2022-09-24T10:09:47.064Z,7.70
2022-09-24T10:15:22.282Z,6.55
2022-09-24T10:20:30.350Z,6.55
2022-09-24T10:25:33.189Z,5.40
2022-09-24T10:30:35.631Z,5.53
2022-09-24T10:35:38.858Z,7.90
2022-09-24T10:40:41.858Z,5.85
2022-09-24T10:46:21.865Z,8.60
2022-09-24T10:51:28.949Z,6.82
2022-09-24T10:56:45.207Z,5.88
2022-09-24T11:02:17.733Z,4.93
2022-09-24T11:07:34.891Z,4.65
2022-09-24T11:13:07.451Z,3.80
2022-09-24T11:18:27.923Z,9.63
2022-09-24T11:23:50.536Z,6.53
2022-09-24T11:29:23.968Z,5.40
2022-09-24T11:34:40.641Z,6.38
2022-09-24T11:40:00.821Z,7.90
2022-09-24T11:45:30.339Z,9.27
2022-09-24T11:50:47.857Z,8.85
2022-09-24T12:01:18.070Z,6.63
2022-09-24T12:06:23.335Z,4.15
2022-09-24T12:11:57.214Z,6.72
2022-09-24T12:17:04.471Z,6.85
2022-09-24T12:22:06.985Z,4.85
2022-09-24T12:27:15.108Z,4.82
2022-09-24T12:32:54.620Z,6.07
2022-09-24T12:38:04.381Z,6.63
2022-09-24T12:43:25.316Z,15.23
2022-09-24T12:48:28.135Z,10.52
2022-09-24T12:53:35.901Z,6.00
2022-09-24T12:58:38.197Z,7.15
2022-09-24T13:03:46.854Z,5.68
2022-09-24T13:08:50.767Z,4.38
2022-09-24T13:14:02.769Z,15.43
2022-09-24T13:19:06.216Z,11.30
2022-09-24T13:24:12.606Z,5.90
2022-09-24T13:29:26.356Z,4.88
2022-09-24T13:34:30.479Z,3.60
2022-09-24T13:39:46.533Z,4.50
2022-09-24T13:44:58.125Z,6.50
2022-09-24T13:50:16.848Z,7.07
2022-09-24T13:55:23.661Z,4.40
2022-09-24T14:00:27.901Z,5.13
2022-09-24T14:05:35.693Z,11.55
2022-09-24T14:10:38.208Z,4.55
2022-09-24T14:15:54.446Z,2.85
2022-09-24T14:21:06.285Z,5.18
2022-09-24T14:26:27.668Z,4.35
2022-09-24T14:31:30.182Z,7.47
2022-09-24T14:36:35.953Z,4.20
2022-09-24T14:41:38.391Z,11.25
2022-09-24T14:46:49.734Z,7.50
2022-09-24T14:52:03.605Z,10.63
2022-09-24T14:57:33.127Z,20.80
2022-09-24T15:02:37.303Z,8.52
2022-09-24T15:07:40.023Z,13.20
2022-09-24T15:12:43.419Z,6.88
2022-09-24T15:17:47.417Z,10.25
2022-09-24T15:22:50.128Z,24.83
2022-09-24T15:27:54.712Z,8.85
2022-09-24T15:32:57.050Z,11.20
2022-09-24T15:37:59.417Z,8.38
2022-09-24T15:43:02.475Z,7.18
2022-09-24T15:48:07.297Z,5.78
2022-09-24T15:53:18.819Z,8.00
2022-09-24T15:58:22.099Z,73.53
2022-09-24T16:03:27.489Z,15.05
2022-09-24T16:08:29.978Z,15.00
2022-09-24T16:13:33.315Z,18.63
2022-09-24T16:18:35.854Z,13.38
2022-09-24T16:23:38.214Z,16.88
2022-09-24T16:28:40.661Z,18.90
2022-09-24T16:33:43.048Z,20.90
2022-09-24T16:38:45.619Z,19.65
2022-09-24T16:43:47.979Z,18.30
2022-09-24T16:48:50.656Z,20.48
2022-09-24T16:53:56.652Z,18.50
2022-09-24T16:58:59.157Z,24.63
2022-09-24T17:04:02.821Z,19.38
2022-09-24T17:09:23.858Z,14.85
2022-09-24T17:14:26.384Z,18.83
2022-09-24T17:19:28.676Z,15.07
2022-09-24T17:24:31.949Z,14.73
2022-09-24T17:29:34.479Z,19.85
2022-09-24T17:34:36.830Z,16.38
2022-09-24T17:39:39.235Z,19.42
2022-09-24T17:44:42.079Z,22.95
2022-09-24T17:49:44.457Z,22.52
2022-09-24T17:54:48.057Z,17.88
2022-09-24T17:59:50.378Z,17.90
2022-09-24T18:04:52.714Z,19.63
2022-09-24T18:09:56.206Z,14.55
2022-09-24T18:14:58.805Z,20.92
2022-09-24T18:20:01.496Z,19.23
2022-09-24T18:25:05.970Z,34.80
2022-09-24T18:30:11.818Z,35.95
2022-09-24T18:35:14.318Z,74.22
2022-09-24T18:40:16.871Z,84.97
2022-09-24T18:45:19.457Z,86.82
2022-09-24T18:50:21.851Z,162.93
2022-09-24T18:55:25.443Z,38.03
2022-09-24T19:00:46.553Z,60.28
2022-09-24T19:05:53.345Z,51.80
2022-09-24T19:10:56.196Z,85.57
2022-09-24T19:15:58.619Z,73.93
2022-09-24T19:21:01.123Z,60.72
2022-09-24T19:26:03.719Z,61.58
2022-09-24T19:31:07.249Z,23.65
2022-09-24T19:36:10.470Z,28.35
2022-09-24T19:41:18.493Z,38.33
2022-09-24T19:46:26.124Z,42.72
2022-09-24T19:51:30.524Z,25.48
2022-09-24T19:56:33.047Z,29.42
2022-09-24T20:01:35.556Z,28.50
2022-09-24T20:06:38.706Z,25.85
2022-09-24T20:11:41.150Z,24.90
2022-09-24T20:16:44.710Z,37.47
2022-09-24T20:21:47.457Z,21.58
2022-09-24T20:27:08.616Z,28.67
2022-09-24T20:32:18.307Z,30.15
2022-09-24T20:37:21.166Z,26.85
2022-09-24T20:42:23.546Z,27.15
2022-09-24T20:47:27.905Z,26.75
2022-09-24T20:52:30.285Z,31.50
2022-09-24T20:57:32.821Z,31.92
2022-09-24T21:02:40.590Z,30.02
2022-09-24T21:07:43.818Z,25.98
2022-09-24T21:12:50.767Z,29.63
2022-09-24T21:18:18.441Z,33.25
2022-09-24T21:23:15.763Z,30.92
2022-09-24T21:28:18.157Z,30.77
2022-09-24T21:33:20.484Z,32.70
2022-09-24T21:38:23.059Z,26.70
2022-09-24T21:43:29.736Z,28.10
2022-09-24T21:48:35.240Z,41.53
2022-09-24T21:53:38.130Z,37.28
2022-09-24T21:58:40.754Z,36.97
2022-09-24T22:03:45.349Z,37.65
2022-09-24T22:08:47.861Z,29.48
2022-09-24T22:13:50.186Z,32.35
2022-09-24T22:18:53.115Z,28.90
2022-09-24T22:23:56.292Z,27.65
2022-09-24T22:28:58.723Z,33.13
2022-09-24T22:34:20.042Z,32.13
2022-09-24T22:39:22.578Z,28.83
2022-09-24T22:44:24.991Z,29.45
2022-09-24T22:49:27.427Z,31.52
2022-09-24T22:54:30.643Z,31.45
2022-09-24T22:59:33.011Z,34.92
2022-09-24T23:04:36.533Z,32.13
2022-09-24T23:09:38.940Z,33.13
2022-09-24T23:14:41.606Z,33.17
2022-09-24T23:19:49.990Z,33.35
2022-09-24T23:24:52.420Z,29.92
2022-09-24T23:29:54.853Z,32.03
2022-09-24T23:34:57.188Z,30.15
2022-09-24T23:39:59.848Z,31.55
2022-09-24T23:45:02.267Z,38.60
2022-09-24T23:50:05.086Z,40.65
2022-09-24T23:55:07.712Z,38.42
